sensor_id;sensor_type;location;lat;lon;timestamp;pressure;altitude;pressure_sealevel;temperature;humidity
52839;BME280;39219;53.678;9.856;2024-03-25T00:00:43;99998.25;;;5.61;85.16
52839;BME280;39219;53.678;9.856;2024-03-25T00:03:09;100007.94;;;5.60;85.15
52839;BME280;39219;53.678;9.856;2024-03-25T00:05:35;100002.50;;;5.65;85.04
52839;BME280;39219;53.678;9.856;2024-03-25T00:08:02;100011.94;;;5.70;84.71
52839;BME280;39219;53.678;9.856;2024-03-25T00:10:28;100020.03;;;5.66;84.87
52839;BME280;39219;53.678;9.856;2024-03-25T00:12:53;100016.50;;;5.67;84.67
52839;BME280;39219;53.678;9.856;2024-03-25T00:15:22;100012.81;;;5.71;84.66
52839;BME280;39219;53.678;9.856;2024-03-25T00:17:50;100021.41;;;5.76;84.49
52839;BME280;39219;53.678;9.856;2024-03-25T00:20:17;100022.22;;;5.78;84.80
52839;BME280;39219;53.678;9.856;2024-03-25T00:22:43;100026.75;;;5.74;84.55
52839;BME280;39219;53.678;9.856;2024-03-25T00:25:09;100027.72;;;5.72;85.04
52839;BME280;39219;53.678;9.856;2024-03-25T00:27:35;100034.88;;;5.68;85.03
52839;BME280;39219;53.678;9.856;2024-03-25T00:30:02;100042.81;;;5.68;85.53
52839;BME280;39219;53.678;9.856;2024-03-25T00:32:27;100033.19;;;5.67;85.63
52839;BME280;39219;53.678;9.856;2024-03-25T00:34:55;100035.34;;;5.56;85.96
52839;BME280;39219;53.678;9.856;2024-03-25T00:37:20;100037.22;;;5.53;85.81
52839;BME280;39219;53.678;9.856;2024-03-25T00:39:47;100041.69;;;5.51;85.96
52839;BME280;39219;53.678;9.856;2024-03-25T00:42:12;100043.47;;;5.50;86.48
52839;BME280;39219;53.678;9.856;2024-03-25T00:44:39;100049.47;;;5.55;86.72
52839;BME280;39219;53.678;9.856;2024-03-25T00:47:04;100058.78;;;5.64;86.63
52839;BME280;39219;53.678;9.856;2024-03-25T00:49:31;100058.75;;;5.65;86.92
52839;BME280;39219;53.678;9.856;2024-03-25T00:51:58;100054.44;;;5.63;87.03
52839;BME280;39219;53.678;9.856;2024-03-25T00:54:24;100056.88;;;5.69;87.18
52839;BME280;39219;53.678;9.856;2024-03-25T00:56:50;100066.69;;;5.65;87.06
52839;BME280;39219;53.678;9.856;2024-03-25T00:59:18;100071.97;;;5.64;87.42
52839;BME280;39219;53.678;9.856;2024-03-25T01:01:44;100070.16;;;5.66;87.58
52839;BME280;39219;53.678;9.856;2024-03-25T01:04:10;100070.13;;;5.67;87.68
52839;BME280;39219;53.678;9.856;2024-03-25T01:06:36;100067.50;;;5.66;87.63
52839;BME280;39219;53.678;9.856;2024-03-25T01:09:04;100069.84;;;5.75;87.39
52839;BME280;39219;53.678;9.856;2024-03-25T01:11:29;100075.22;;;5.72;87.58
52839;BME280;39219;53.678;9.856;2024-03-25T01:13:56;100077.09;;;5.68;87.29
52839;BME280;39219;53.678;9.856;2024-03-25T01:16:21;100078.88;;;5.68;87.85
52839;BME280;39219;53.678;9.856;2024-03-25T01:18:48;100077.22;;;5.65;87.76
52839;BME280;39219;53.678;9.856;2024-03-25T01:21:13;100080.97;;;5.60;87.69
52839;BME280;39219;53.678;9.856;2024-03-25T01:23:40;100085.44;;;5.58;87.75
52839;BME280;39219;53.678;9.856;2024-03-25T01:26:07;100088.00;;;5.59;87.84
52839;BME280;39219;53.678;9.856;2024-03-25T01:28:33;100096.00;;;5.56;87.79
52839;BME280;39219;53.678;9.856;2024-03-25T01:30:59;100087.06;;;5.60;87.92
52839;BME280;39219;53.678;9.856;2024-03-25T01:33:25;100088.06;;;5.58;87.90
52839;BME280;39219;53.678;9.856;2024-03-25T01:35:51;100091.66;;;5.55;88.37
52839;BME280;39219;53.678;9.856;2024-03-25T01:38:19;100094.38;;;5.52;88.00
52839;BME280;39219;53.678;9.856;2024-03-25T01:40:45;100097.09;;;5.51;88.42
52839;BME280;39219;53.678;9.856;2024-03-25T01:43:13;100091.66;;;5.55;88.29
52839;BME280;39219;53.678;9.856;2024-03-25T01:45:38;100088.88;;;5.60;88.39
52839;BME280;39219;53.678;9.856;2024-03-25T01:48:07;100094.97;;;5.60;88.44
52839;BME280;39219;53.678;9.856;2024-03-25T01:50:35;100098.38;;;5.64;88.50
52839;BME280;39219;53.678;9.856;2024-03-25T01:53:02;100104.50;;;5.64;88.45
52839;BME280;39219;53.678;9.856;2024-03-25T01:55:29;100122.75;;;5.70;88.72
52839;BME280;39219;53.678;9.856;2024-03-25T01:57:56;100119.09;;;5.74;88.32
52839;BME280;39219;53.678;9.856;2024-03-25T02:00:24;100109.91;;;5.61;88.81
52839;BME280;39219;53.678;9.856;2024-03-25T02:02:52;100113.56;;;5.57;88.85
52839;BME280;39219;53.678;9.856;2024-03-25T02:05:18;100126.28;;;5.46;88.92
52839;BME280;39219;53.678;9.856;2024-03-25T02:07:45;100136.84;;;5.46;89.19
52839;BME280;39219;53.678;9.856;2024-03-25T02:10:11;100142.88;;;5.48;89.57
52839;BME280;39219;53.678;9.856;2024-03-25T02:12:40;100133.06;;;5.53;89.43
52839;BME280;39219;53.678;9.856;2024-03-25T02:15:06;100145.78;;;5.40;89.48
52839;BME280;39219;53.678;9.856;2024-03-25T02:17:34;100138.88;;;5.38;89.43
52839;BME280;39219;53.678;9.856;2024-03-25T02:20:00;100131.00;;;5.36;89.44
52839;BME280;39219;53.678;9.856;2024-03-25T02:22:27;100152.34;;;5.29;89.78
52839;BME280;39219;53.678;9.856;2024-03-25T02:24:53;100139.16;;;5.29;89.92
52839;BME280;39219;53.678;9.856;2024-03-25T02:27:24;100142.81;;;5.25;89.83
52839;BME280;39219;53.678;9.856;2024-03-25T02:29:50;100145.44;;;5.25;89.99
52839;BME280;39219;53.678;9.856;2024-03-25T02:32:16;100149.91;;;5.23;89.99
52839;BME280;39219;53.678;9.856;2024-03-25T02:34:45;100143.75;;;5.24;89.90
52839;BME280;39219;53.678;9.856;2024-03-25T02:37:12;100144.69;;;5.21;90.20
52839;BME280;39219;53.678;9.856;2024-03-25T02:39:38;100154.56;;;5.16;90.13
52839;BME280;39219;53.678;9.856;2024-03-25T02:42:05;100154.44;;;5.19;90.27
52839;BME280;39219;53.678;9.856;2024-03-25T02:44:32;100146.47;;;5.21;90.35
52839;BME280;39219;53.678;9.856;2024-03-25T02:46:59;100151.09;;;5.14;90.52
52839;BME280;39219;53.678;9.856;2024-03-25T02:49:25;100159.22;;;5.08;90.52
52839;BME280;39219;53.678;9.856;2024-03-25T02:51:51;100161.03;;;5.06;90.26
52839;BME280;39219;53.678;9.856;2024-03-25T02:54:17;100154.56;;;5.16;90.91
52839;BME280;39219;53.678;9.856;2024-03-25T02:56:44;100157.25;;;5.13;90.59
52839;BME280;39219;53.678;9.856;2024-03-25T02:59:10;100163.75;;;5.03;90.77
52839;BME280;39219;53.678;9.856;2024-03-25T03:01:37;100165.63;;;5.00;90.69
52839;BME280;39219;53.678;9.856;2024-03-25T03:04:03;100172.66;;;4.99;90.71
52839;BME280;39219;53.678;9.856;2024-03-25T03:06:29;100177.03;;;5.00;90.82
52839;BME280;39219;53.678;9.856;2024-03-25T03:08:55;100179.88;;;4.94;91.05
52839;BME280;39219;53.678;9.856;2024-03-25T03:11:21;100183.44;;;4.93;91.05
52839;BME280;39219;53.678;9.856;2024-03-25T03:13:47;100189.53;;;4.94;90.94
52839;BME280;39219;53.678;9.856;2024-03-25T03:16:13;100201.81;;;4.95;90.98
52839;BME280;39219;53.678;9.856;2024-03-25T03:18:40;100199.25;;;4.93;91.17
52839;BME280;39219;53.678;9.856;2024-03-25T03:21:07;100210.53;;;4.97;90.91
52839;BME280;39219;53.678;9.856;2024-03-25T03:23:32;100219.34;;;4.96;90.79
52839;BME280;39219;53.678;9.856;2024-03-25T03:25:59;100216.56;;;5.00;90.99
52839;BME280;39219;53.678;9.856;2024-03-25T03:28:25;100216.63;;;4.99;90.75
52839;BME280;39219;53.678;9.856;2024-03-25T03:30:53;100227.16;;;4.99;90.66
52839;BME280;39219;53.678;9.856;2024-03-25T03:33:18;100233.44;;;4.95;90.75
52839;BME280;39219;53.678;9.856;2024-03-25T03:35:46;100237.66;;;5.00;90.83
52839;BME280;39219;53.678;9.856;2024-03-25T03:38:12;100246.50;;;4.98;90.63
52839;BME280;39219;53.678;9.856;2024-03-25T03:40:38;100245.50;;;5.02;90.77
52839;BME280;39219;53.678;9.856;2024-03-25T03:43:04;100253.66;;;4.94;90.58
52839;BME280;39219;53.678;9.856;2024-03-25T03:45:33;100246.84;;;4.87;90.69
52839;BME280;39219;53.678;9.856;2024-03-25T03:47:58;100248.56;;;4.88;90.55
52839;BME280;39219;53.678;9.856;2024-03-25T03:50:25;100250.16;;;4.94;90.63
52839;BME280;39219;53.678;9.856;2024-03-25T03:52:52;100246.50;;;4.98;90.49
52839;BME280;39219;53.678;9.856;2024-03-25T03:55:18;100251.78;;;4.98;90.50
52839;BME280;39219;53.678;9.856;2024-03-25T03:57:44;100260.75;;;4.92;90.18
52839;BME280;39219;53.678;9.856;2024-03-25T04:00:12;100264.31;;;4.91;90.15
52839;BME280;39219;53.678;9.856;2024-03-25T04:02:39;100264.38;;;4.88;90.06
52839;BME280;39219;53.678;9.856;2024-03-25T04:05:06;100267.75;;;4.93;89.77
52839;BME280;39219;53.678;9.856;2024-03-25T04:07:32;100272.22;;;4.90;89.92
52839;BME280;39219;53.678;9.856;2024-03-25T04:09:59;100278.31;;;4.92;89.87
52839;BME280;39219;53.678;9.856;2024-03-25T04:12:25;100279.06;;;4.97;89.52
52839;BME280;39219;53.678;9.856;2024-03-25T04:14:51;100273.03;;;4.92;89.30
52839;BME280;39219;53.678;9.856;2024-03-25T04:17:20;100278.50;;;4.86;89.20
52839;BME280;39219;53.678;9.856;2024-03-25T04:19:47;100285.38;;;4.91;89.25
52839;BME280;39219;53.678;9.856;2024-03-25T04:22:13;100285.44;;;4.88;89.27
52839;BME280;39219;53.678;9.856;2024-03-25T04:24:39;100289.19;;;4.81;89.17
52839;BME280;39219;53.678;9.856;2024-03-25T04:27:06;100285.59;;;4.84;88.71
52839;BME280;39219;53.678;9.856;2024-03-25T04:29:33;100291.06;;;4.78;88.54
52839;BME280;39219;53.678;9.856;2024-03-25T04:31:58;100302.84;;;4.65;89.14
52839;BME280;39219;53.678;9.856;2024-03-25T04:34:25;100311.00;;;4.56;88.85
52839;BME280;39219;53.678;9.856;2024-03-25T04:36:50;100311.13;;;4.51;89.19
52839;BME280;39219;53.678;9.856;2024-03-25T04:39:16;100319.69;;;4.59;89.52
52839;BME280;39219;53.678;9.856;2024-03-25T04:41:42;100312.47;;;4.66;89.02
52839;BME280;39219;53.678;9.856;2024-03-25T04:44:09;100316.78;;;4.68;89.29
52839;BME280;39219;53.678;9.856;2024-03-25T04:46:34;100321.97;;;4.71;89.38
52839;BME280;39219;53.678;9.856;2024-03-25T04:49:00;100320.13;;;4.75;89.20
52839;BME280;39219;53.678;9.856;2024-03-25T04:51:26;100321.94;;;4.73;89.34
52839;BME280;39219;53.678;9.856;2024-03-25T04:53:51;100321.09;;;4.71;89.24
52839;BME280;39219;53.678;9.856;2024-03-25T04:56:17;100323.66;;;4.74;89.14
52839;BME280;39219;53.678;9.856;2024-03-25T04:58:43;100328.34;;;4.64;89.02
52839;BME280;39219;53.678;9.856;2024-03-25T05:01:10;100327.09;;;4.45;88.78
52839;BME280;39219;53.678;9.856;2024-03-25T05:03:35;100326.03;;;4.20;88.37
52839;BME280;39219;53.678;9.856;2024-03-25T05:06:01;100329.47;;;3.90;88.71
52839;BME280;39219;53.678;9.856;2024-03-25T05:08:26;100340.63;;;3.64;88.80
52839;BME280;39219;53.678;9.856;2024-03-25T05:10:52;100339.34;;;3.43;89.00
52839;BME280;39219;53.678;9.856;2024-03-25T05:13:17;100349.34;;;3.29;88.74
52839;BME280;39219;53.678;9.856;2024-03-25T05:15:49;100354.03;;;3.15;88.79
52839;BME280;39219;53.678;9.856;2024-03-25T05:18:16;100360.47;;;3.01;89.26
52839;BME280;39219;53.678;9.856;2024-03-25T05:20:42;100371.19;;;2.92;89.41
52839;BME280;39219;53.678;9.856;2024-03-25T05:23:07;100357.66;;;3.10;90.04
52839;BME280;39219;53.678;9.856;2024-03-25T05:25:34;100352.69;;;3.36;90.54
52839;BME280;39219;53.678;9.856;2024-03-25T05:27:59;100358.25;;;3.60;90.86
52839;BME280;39219;53.678;9.856;2024-03-25T05:30:25;100357.94;;;3.73;90.97
52839;BME280;39219;53.678;9.856;2024-03-25T05:32:51;100359.38;;;3.86;91.13
52839;BME280;39219;53.678;9.856;2024-03-25T05:35:17;100354.66;;;4.00;91.17
52839;BME280;39219;53.678;9.856;2024-03-25T05:37:43;100364.13;;;4.07;91.36
52839;BME280;39219;53.678;9.856;2024-03-25T05:40:09;100369.28;;;4.11;91.26
52839;BME280;39219;53.678;9.856;2024-03-25T05:42:36;100368.88;;;4.26;91.21
52839;BME280;39219;53.678;9.856;2024-03-25T05:45:01;100369.31;;;4.42;91.39
52839;BME280;39219;53.678;9.856;2024-03-25T05:47:27;100374.13;;;4.59;91.22
52839;BME280;39219;53.678;9.856;2024-03-25T05:49:53;100371.31;;;4.66;91.03
52839;BME280;39219;53.678;9.856;2024-03-25T05:52:19;100371.25;;;4.68;90.74
52839;BME280;39219;53.678;9.856;2024-03-25T05:54:45;100365.16;;;4.66;90.59
52839;BME280;39219;53.678;9.856;2024-03-25T05:57:11;100373.13;;;4.64;90.47
52839;BME280;39219;53.678;9.856;2024-03-25T05:59:36;100372.34;;;4.59;90.73
52839;BME280;39219;53.678;9.856;2024-03-25T06:02:02;100376.63;;;4.63;91.14
52839;BME280;39219;53.678;9.856;2024-03-25T06:04:27;100378.19;;;4.70;90.90
52839;BME280;39219;53.678;9.856;2024-03-25T06:06:53;100379.22;;;4.66;90.77
52839;BME280;39219;53.678;9.856;2024-03-25T06:09:20;100390.28;;;4.46;90.38
52839;BME280;39219;53.678;9.856;2024-03-25T06:11:45;100392.94;;;4.45;90.51
52839;BME280;39219;53.678;9.856;2024-03-25T06:14:11;100385.91;;;4.78;91.36
52839;BME280;39219;53.678;9.856;2024-03-25T06:16:36;100391.78;;;5.46;92.64
52839;BME280;39219;53.678;9.856;2024-03-25T06:19:02;100389.22;;;6.25;92.81
52839;BME280;39219;53.678;9.856;2024-03-25T06:21:27;100388.59;;;7.39;93.69
52839;BME280;39219;53.678;9.856;2024-03-25T06:23:53;100391.09;;;8.30;89.42
52839;BME280;39219;53.678;9.856;2024-03-25T06:26:20;100394.88;;;8.65;89.26
52839;BME280;39219;53.678;9.856;2024-03-25T06:28:46;100392.38;;;9.39;83.12
52839;BME280;39219;53.678;9.856;2024-03-25T06:31:11;100395.81;;;8.22;80.31
52839;BME280;39219;53.678;9.856;2024-03-25T06:33:55;100403.81;;;6.86;80.91
52839;BME280;39219;53.678;9.856;2024-03-25T06:36:39;100413.19;;;6.19;82.91
52839;BME280;39219;53.678;9.856;2024-03-25T06:39:05;100418.44;;;5.93;83.87
52839;BME280;39219;53.678;9.856;2024-03-25T06:41:32;100423.03;;;5.88;84.44
52839;BME280;39219;53.678;9.856;2024-03-25T06:43:57;100424.78;;;5.88;85.26
52839;BME280;39219;53.678;9.856;2024-03-25T06:46:23;100428.91;;;5.96;85.32
52839;BME280;39219;53.678;9.856;2024-03-25T06:48:48;100426.41;;;6.19;86.02
52839;BME280;39219;53.678;9.856;2024-03-25T06:51:14;100431.44;;;6.52;86.01
52839;BME280;39219;53.678;9.856;2024-03-25T06:53:39;100437.94;;;6.68;85.72
52839;BME280;39219;53.678;9.856;2024-03-25T06:56:05;100442.63;;;6.60;84.96
52839;BME280;39219;53.678;9.856;2024-03-25T06:58:32;100449.03;;;6.53;84.67
52839;BME280;39219;53.678;9.856;2024-03-25T07:01:04;100438.06;;;6.39;84.16
52839;BME280;39219;53.678;9.856;2024-03-25T07:03:30;100442.59;;;6.35;84.43
52839;BME280;39219;53.678;9.856;2024-03-25T07:05:55;100443.69;;;6.28;84.29
52839;BME280;39219;53.678;9.856;2024-03-25T07:08:21;100440.84;;;6.34;84.04
52839;BME280;39219;53.678;9.856;2024-03-25T07:10:47;100442.13;;;6.22;84.25
52839;BME280;39219;53.678;9.856;2024-03-25T07:13:13;100433.66;;;6.13;84.50
52839;BME280;39219;53.678;9.856;2024-03-25T07:15:40;100442.28;;;6.18;84.47
52839;BME280;39219;53.678;9.856;2024-03-25T07:18:06;100440.78;;;6.37;84.48
52839;BME280;39219;53.678;9.856;2024-03-25T07:20:31;100442.88;;;6.52;84.15
52839;BME280;39219;53.678;9.856;2024-03-25T07:22:58;100452.13;;;6.65;84.44
52839;BME280;39219;53.678;9.856;2024-03-25T07:25:24;100451.59;;;6.80;84.32
52839;BME280;39219;53.678;9.856;2024-03-25T07:27:50;100455.25;;;7.01;84.14
52839;BME280;39219;53.678;9.856;2024-03-25T07:30:15;100451.31;;;7.36;84.50
52839;BME280;39219;53.678;9.856;2024-03-25T07:32:42;100451.63;;;7.51;83.40
52839;BME280;39219;53.678;9.856;2024-03-25T07:35:08;100446.63;;;7.44;81.49
52839;BME280;39219;53.678;9.856;2024-03-25T07:37:34;100460.06;;;7.84;82.46
52839;BME280;39219;53.678;9.856;2024-03-25T07:39:59;100453.25;;;7.77;81.22
52839;BME280;39219;53.678;9.856;2024-03-25T07:42:25;100456.75;;;7.56;80.13
52839;BME280;39219;53.678;9.856;2024-03-25T07:44:51;100467.84;;;7.42;80.89
52839;BME280;39219;53.678;9.856;2024-03-25T07:47:16;100461.22;;;7.54;80.91
52839;BME280;39219;53.678;9.856;2024-03-25T07:49:43;100464.69;;;7.33;80.15
52839;BME280;39219;53.678;9.856;2024-03-25T07:52:09;100476.81;;;6.90;80.26
52839;BME280;39219;53.678;9.856;2024-03-25T07:54:34;100472.84;;;6.77;80.75
52839;BME280;39219;53.678;9.856;2024-03-25T07:57:00;100480.28;;;6.66;81.28
52839;BME280;39219;53.678;9.856;2024-03-25T07:59:26;100482.25;;;6.60;81.08
52839;BME280;39219;53.678;9.856;2024-03-25T08:01:51;100491.41;;;6.50;81.37
52839;BME280;39219;53.678;9.856;2024-03-25T08:04:17;100489.78;;;6.46;81.79
52839;BME280;39219;53.678;9.856;2024-03-25T08:06:44;100494.84;;;6.52;82.54
52839;BME280;39219;53.678;9.856;2024-03-25T08:09:09;100492.00;;;6.84;83.07
52839;BME280;39219;53.678;9.856;2024-03-25T08:11:35;100490.69;;;7.22;82.97
52839;BME280;39219;53.678;9.856;2024-03-25T08:14:00;100486.28;;;7.90;83.42
52839;BME280;39219;53.678;9.856;2024-03-25T08:16:26;100486.56;;;8.90;81.37
52839;BME280;39219;53.678;9.856;2024-03-25T08:18:51;100481.25;;;9.31;79.16
52839;BME280;39219;53.678;9.856;2024-03-25T08:21:17;100476.63;;;8.75;77.28
52839;BME280;39219;53.678;9.856;2024-03-25T08:23:46;100492.13;;;8.84;78.50
52839;BME280;39219;53.678;9.856;2024-03-25T08:26:11;100488.56;;;9.26;79.40
52839;BME280;39219;53.678;9.856;2024-03-25T08:28:37;100483.84;;;9.32;77.32
52839;BME280;39219;53.678;9.856;2024-03-25T08:31:03;100488.38;;;9.30;77.45
52839;BME280;39219;53.678;9.856;2024-03-25T08:33:28;100488.50;;;9.07;76.99
52839;BME280;39219;53.678;9.856;2024-03-25T08:35:54;100485.22;;;9.21;77.64
52839;BME280;39219;53.678;9.856;2024-03-25T08:38:20;100491.31;;;10.00;75.60
52839;BME280;39219;53.678;9.856;2024-03-25T08:40:47;100490.72;;;10.66;73.21
52839;BME280;39219;53.678;9.856;2024-03-25T08:43:12;100489.53;;;11.23;70.07
52839;BME280;39219;53.678;9.856;2024-03-25T08:45:38;100484.81;;;11.61;66.50
52839;BME280;39219;53.678;9.856;2024-03-25T08:48:04;100476.75;;;12.87;64.65
52839;BME280;39219;53.678;9.856;2024-03-25T08:50:30;100470.66;;;13.71;60.17
52839;BME280;39219;53.678;9.856;2024-03-25T08:52:55;100487.47;;;13.45;59.79
52839;BME280;39219;53.678;9.856;2024-03-25T08:55:21;100493.81;;;12.69;60.00
52839;BME280;39219;53.678;9.856;2024-03-25T08:57:48;100487.66;;;11.91;60.37
52839;BME280;39219;53.678;9.856;2024-03-25T09:00:14;100496.91;;;10.84;62.40
52839;BME280;39219;53.678;9.856;2024-03-25T09:02:40;100497.63;;;10.70;63.64
52839;BME280;39219;53.678;9.856;2024-03-25T09:05:06;100499.41;;;10.70;62.96
52839;BME280;39219;53.678;9.856;2024-03-25T09:07:32;100500.50;;;10.83;63.82
52839;BME280;39219;53.678;9.856;2024-03-25T09:09:57;100483.66;;;11.67;63.88
52839;BME280;39219;53.678;9.856;2024-03-25T09:12:41;100488.50;;;11.76;61.64
52839;BME280;39219;53.678;9.856;2024-03-25T09:15:08;100484.63;;;11.66;61.51
52839;BME280;39219;53.678;9.856;2024-03-25T09:17:34;100492.31;;;11.87;59.42
52839;BME280;39219;53.678;9.856;2024-03-25T09:20:00;100504.53;;;11.41;57.77
52839;BME280;39219;53.678;9.856;2024-03-25T09:22:26;100493.78;;;10.76;59.46
52839;BME280;39219;53.678;9.856;2024-03-25T09:24:51;100507.47;;;11.03;59.79
52839;BME280;39219;53.678;9.856;2024-03-25T09:27:17;100495.47;;;11.28;59.03
52839;BME280;39219;53.678;9.856;2024-03-25T09:29:42;100510.00;;;11.06;58.29
52839;BME280;39219;53.678;9.856;2024-03-25T09:32:09;100514.78;;;10.09;59.28
52839;BME280;39219;53.678;9.856;2024-03-25T09:34:35;100517.59;;;10.06;60.50
52839;BME280;39219;53.678;9.856;2024-03-25T09:37:00;100519.75;;;10.17;61.26
52839;BME280;39219;53.678;9.856;2024-03-25T09:39:26;100522.53;;;9.95;61.03
52839;BME280;39219;53.678;9.856;2024-03-25T09:41:55;100523.28;;;10.17;62.64
52839;BME280;39219;53.678;9.856;2024-03-25T09:44:22;100523.75;;;10.44;60.80
52839;BME280;39219;53.678;9.856;2024-03-25T09:46:49;100522.34;;;10.37;59.06
52839;BME280;39219;53.678;9.856;2024-03-25T09:49:16;100536.06;;;10.28;60.46
52839;BME280;39219;53.678;9.856;2024-03-25T09:51:42;100534.47;;;9.86;58.50
52839;BME280;39219;53.678;9.856;2024-03-25T09:54:08;100528.78;;;9.94;60.30
52839;BME280;39219;53.678;9.856;2024-03-25T09:56:33;100521.88;;;10.10;59.26
52839;BME280;39219;53.678;9.856;2024-03-25T09:58:59;100520.41;;;10.57;58.20
52839;BME280;39219;53.678;9.856;2024-03-25T10:01:25;100523.84;;;10.78;57.38
52839;BME280;39219;53.678;9.856;2024-03-25T10:03:51;100527.06;;;11.02;57.95
52839;BME280;39219;53.678;9.856;2024-03-25T10:06:18;100531.06;;;11.60;56.63
52839;BME280;39219;53.678;9.856;2024-03-25T10:08:44;100522.56;;;11.86;55.39
52839;BME280;39219;53.678;9.856;2024-03-25T10:11:10;100528.19;;;11.47;54.29
52839;BME280;39219;53.678;9.856;2024-03-25T10:13:36;100515.53;;;11.85;55.98
52839;BME280;39219;53.678;9.856;2024-03-25T10:16:02;100518.47;;;12.27;52.67
52839;BME280;39219;53.678;9.856;2024-03-25T10:18:28;100523.81;;;12.27;53.19
52839;BME280;39219;53.678;9.856;2024-03-25T10:20:53;100525.75;;;11.43;55.85
52839;BME280;39219;53.678;9.856;2024-03-25T10:23:21;100537.72;;;10.30;58.38
52839;BME280;39219;53.678;9.856;2024-03-25T10:25:48;100531.97;;;10.21;58.95
52839;BME280;39219;53.678;9.856;2024-03-25T10:28:14;100532.75;;;10.41;59.41
52839;BME280;39219;53.678;9.856;2024-03-25T10:30:40;100536.78;;;10.67;58.31
52839;BME280;39219;53.678;9.856;2024-03-25T10:33:07;100533.31;;;10.84;57.29
52839;BME280;39219;53.678;9.856;2024-03-25T10:35:34;100534.56;;;10.94;55.87
52839;BME280;39219;53.678;9.856;2024-03-25T10:38:01;100535.66;;;11.24;55.47
52839;BME280;39219;53.678;9.856;2024-03-25T10:40:29;100525.69;;;11.44;52.84
52839;BME280;39219;53.678;9.856;2024-03-25T10:43:01;100525.25;;;12.33;54.38
52839;BME280;39219;53.678;9.856;2024-03-25T10:45:29;100524.59;;;13.06;53.33
52839;BME280;39219;53.678;9.856;2024-03-25T10:47:57;100522.13;;;13.17;52.32
52839;BME280;39219;53.678;9.856;2024-03-25T10:50:26;100520.78;;;13.39;51.11
52839;BME280;39219;53.678;9.856;2024-03-25T10:52:53;100530.00;;;12.43;49.99
52839;BME280;39219;53.678;9.856;2024-03-25T10:55:19;100533.50;;;11.82;49.89
52839;BME280;39219;53.678;9.856;2024-03-25T10:57:47;100536.34;;;11.10;50.61
52839;BME280;39219;53.678;9.856;2024-03-25T11:00:14;100537.56;;;10.69;53.50
52839;BME280;39219;53.678;9.856;2024-03-25T11:02:41;100542.00;;;10.51;54.01
52839;BME280;39219;53.678;9.856;2024-03-25T11:05:07;100539.44;;;10.31;54.06
52839;BME280;39219;53.678;9.856;2024-03-25T11:07:33;100534.09;;;10.86;55.42
52839;BME280;39219;53.678;9.856;2024-03-25T11:10:03;100534.28;;;11.67;54.60
52839;BME280;39219;53.678;9.856;2024-03-25T11:12:35;100527.50;;;12.09;51.53
52839;BME280;39219;53.678;9.856;2024-03-25T11:15:02;100531.97;;;12.56;51.46
52839;BME280;39219;53.678;9.856;2024-03-25T11:17:29;100540.69;;;12.28;50.41
52839;BME280;39219;53.678;9.856;2024-03-25T11:19:54;100527.44;;;12.26;49.66
52839;BME280;39219;53.678;9.856;2024-03-25T11:22:32;100527.66;;;12.06;49.63
52839;BME280;39219;53.678;9.856;2024-03-25T11:25:05;100540.56;;;11.66;50.84
52839;BME280;39219;53.678;9.856;2024-03-25T11:27:31;100537.22;;;10.94;50.26
52839;BME280;39219;53.678;9.856;2024-03-25T11:29:57;100542.19;;;10.30;51.86
52839;BME280;39219;53.678;9.856;2024-03-25T11:32:24;100537.72;;;11.02;52.87
52839;BME280;39219;53.678;9.856;2024-03-25T11:34:50;100526.06;;;11.71;51.50
52839;BME280;39219;53.678;9.856;2024-03-25T11:37:16;100526.91;;;12.51;50.72
52839;BME280;39219;53.678;9.856;2024-03-25T11:39:42;100520.97;;;12.30;47.42
52839;BME280;39219;53.678;9.856;2024-03-25T11:42:08;100510.69;;;12.85;47.14
52839;BME280;39219;53.678;9.856;2024-03-25T11:44:36;100514.19;;;12.86;45.92
52839;BME280;39219;53.678;9.856;2024-03-25T11:47:02;100514.63;;;13.23;46.70
52839;BME280;39219;53.678;9.856;2024-03-25T11:49:29;100508.09;;;13.13;47.36
52839;BME280;39219;53.678;9.856;2024-03-25T11:51:54;100509.03;;;13.70;48.94
52839;BME280;39219;53.678;9.856;2024-03-25T11:54:20;100505.22;;;13.88;46.70
52839;BME280;39219;53.678;9.856;2024-03-25T11:56:45;100500.81;;;13.45;47.17
52839;BME280;39219;53.678;9.856;2024-03-25T11:59:12;100505.13;;;13.48;45.73
52839;BME280;39219;53.678;9.856;2024-03-25T12:01:38;100502.50;;;13.18;44.60
52839;BME280;39219;53.678;9.856;2024-03-25T12:04:09;100500.78;;;12.87;44.46
52839;BME280;39219;53.678;9.856;2024-03-25T12:06:37;100507.69;;;12.60;45.49
52839;BME280;39219;53.678;9.856;2024-03-25T12:09:02;100510.56;;;12.26;45.88
52839;BME280;39219;53.678;9.856;2024-03-25T12:11:47;100517.25;;;12.17;48.00
52839;BME280;39219;53.678;9.856;2024-03-25T12:14:13;100518.66;;;12.09;48.79
52839;BME280;39219;53.678;9.856;2024-03-25T12:16:39;100524.94;;;11.75;49.51
52839;BME280;39219;53.678;9.856;2024-03-25T12:19:05;100509.94;;;11.74;49.15
52839;BME280;39219;53.678;9.856;2024-03-25T12:21:31;100511.94;;;12.33;49.55
52839;BME280;39219;53.678;9.856;2024-03-25T12:23:59;100519.25;;;12.45;48.54
52839;BME280;39219;53.678;9.856;2024-03-25T12:26:24;100503.56;;;12.54;49.39
52839;BME280;39219;53.678;9.856;2024-03-25T12:28:50;100512.44;;;12.55;50.50
52839;BME280;39219;53.678;9.856;2024-03-25T12:31:17;100514.09;;;12.26;53.67
52839;BME280;39219;53.678;9.856;2024-03-25T12:33:43;100509.34;;;12.31;50.41
52839;BME280;39219;53.678;9.856;2024-03-25T12:36:09;100508.53;;;12.76;52.02
52839;BME280;39219;53.678;9.856;2024-03-25T12:38:36;100508.44;;;12.78;48.40
52839;BME280;39219;53.678;9.856;2024-03-25T12:41:07;100530.66;;;11.35;54.84
52839;BME280;39219;53.678;9.856;2024-03-25T12:43:34;100528.69;;;10.16;60.63
52839;BME280;39219;53.678;9.856;2024-03-25T12:46:00;100521.72;;;10.13;63.69
52839;BME280;39219;53.678;9.856;2024-03-25T12:48:26;100514.34;;;10.00;65.01
52839;BME280;39219;53.678;9.856;2024-03-25T12:50:52;100520.66;;;10.34;65.24
52839;BME280;39219;53.678;9.856;2024-03-25T12:53:18;100521.09;;;10.97;65.38